Musson, Belgium
Current Conditions -  °F | °C
As of 6:50 AM on Sunday 26 Oct 2014 (Local Time) from ELLX Reporting Station
Few Clouds Few Clouds  
Wind Chill: 46°   Ceiling: Unl
Heat Index: 46°   Visibility: 2.5mi
Dew Point: 46°   Wind: 1mph
Humidity: 100%   Direction: 80°E
Pressure: 30.27"   Gusts: NA
Location:  49.56°N, 5.7°E
Report Text: ELLX 260450Z 08001KT 4000 R24/0225V1100N FEW038 08/08 Q1025 NOSIG
Loading
Personal Weather Stations






























Interactive Weather Map
Tropical Storm Tracking
New forecast layout! Learn more

10-Day Weather Forecast

Advertisements
Track Severe Weather on mobile